createdAt,value
2022-11-29T00:00:38.616Z,93.51
2022-11-29T00:03:01.377Z,93.82
2022-11-29T00:05:24.103Z,93.94
2022-11-29T00:07:46.952Z,93.64
2022-11-29T00:10:10.047Z,93.54
2022-11-29T00:12:32.501Z,93.32
2022-11-29T00:14:55.059Z,93.28
2022-11-29T00:17:17.545Z,93.46
2022-11-29T00:19:40.367Z,93.55
2022-11-29T00:22:25.234Z,93.67
2022-11-29T00:24:47.823Z,93.65
2022-11-29T00:27:10.593Z,93.57
2022-11-29T00:29:33.242Z,93.53
2022-11-29T00:31:55.918Z,93.32
2022-11-29T00:34:18.586Z,93.44
2022-11-29T00:36:41.740Z,93.26
2022-11-29T00:39:05.227Z,93.26
2022-11-29T00:41:27.915Z,93.29
2022-11-29T00:43:50.702Z,93.44
2022-11-29T00:46:13.310Z,93.18
2022-11-29T00:48:36.801Z,93.38
2022-11-29T00:50:59.567Z,93.20
2022-11-29T00:53:22.630Z,93.30
2022-11-29T00:55:47.748Z,93.29
2022-11-29T00:58:10.860Z,93.39
2022-11-29T01:00:33.622Z,93.61
2022-11-29T01:02:56.376Z,93.50
2022-11-29T01:05:19.029Z,93.85
2022-11-29T01:07:41.584Z,93.93
2022-11-29T01:10:04.769Z,93.85
2022-11-29T01:12:27.655Z,94.04
2022-11-29T01:14:50.235Z,93.93
2022-11-29T01:17:12.816Z,94.04
2022-11-29T01:19:35.637Z,94.14
2022-11-29T01:21:58.280Z,94.16
2022-11-29T01:24:22.356Z,94.05
2022-11-29T01:26:44.955Z,93.88
2022-11-29T01:29:07.891Z,93.82
2022-11-29T01:31:33.723Z,94.04
2022-11-29T01:34:01.565Z,94.05
2022-11-29T01:36:24.996Z,93.87
2022-11-29T01:38:47.935Z,93.62
2022-11-29T01:41:18.357Z,93.62
2022-11-29T01:43:57.903Z,93.46
2022-11-29T01:46:22.830Z,93.64
2022-11-29T01:48:45.498Z,93.91
2022-11-29T01:51:08.195Z,94.07
2022-11-29T01:53:30.836Z,94.18
2022-11-29T01:56:01.443Z,94.34
2022-11-29T01:58:24.219Z,94.40
2022-11-29T02:00:47.066Z,94.35
2022-11-29T02:03:16.236Z,94.47
2022-11-29T02:05:48.634Z,94.17
2022-11-29T02:08:14.004Z,93.85
2022-11-29T02:10:56.512Z,93.89
2022-11-29T02:13:28.298Z,93.97
2022-11-29T02:16:04.008Z,94.13
2022-11-29T02:18:35.306Z,94.16
2022-11-29T02:21:13.094Z,94.14
2022-11-29T02:24:03.378Z,94.41
2022-11-29T02:26:46.869Z,94.35
2022-11-29T02:29:24.239Z,94.39
2022-11-29T02:32:09.414Z,93.99
2022-11-29T02:34:54.236Z,93.99
2022-11-29T02:37:59.267Z,93.94
2022-11-29T02:40:25.810Z,93.85
2022-11-29T02:42:56.443Z,93.70
2022-11-29T02:45:44.548Z,93.75
2022-11-29T02:48:52.318Z,93.91
2022-11-29T02:51:41.524Z,94.07
2022-11-29T02:54:07.008Z,93.90
2022-11-29T02:56:43.489Z,94.55
2022-11-29T02:59:35.443Z,94.08
2022-11-29T03:02:28.694Z,93.89
2022-11-29T03:05:32.373Z,94.04
2022-11-29T03:08:09.360Z,94.00
2022-11-29T03:11:13.072Z,93.76
2022-11-29T03:14:03.355Z,93.41
2022-11-29T03:16:39.684Z,93.41
2022-11-29T03:19:32.909Z,93.53
2022-11-29T03:22:07.523Z,93.46
2022-11-29T03:24:40.626Z,93.37
2022-11-29T03:27:11.733Z,93.54
2022-11-29T03:29:38.520Z,93.38
2022-11-29T03:32:17.779Z,93.48
2022-11-29T03:34:57.324Z,93.02
2022-11-29T03:37:44.012Z,92.75
2022-11-29T03:40:13.185Z,92.77
2022-11-29T03:43:01.137Z,93.04
2022-11-29T03:46:11.445Z,92.80
2022-11-29T03:48:48.394Z,92.47
2022-11-29T03:51:20.132Z,92.57
2022-11-29T03:53:56.504Z,92.65
2022-11-29T03:56:40.061Z,93.00
2022-11-29T03:59:34.508Z,93.19
2022-11-29T04:02:10.458Z,93.25
2022-11-29T04:04:57.583Z,93.14
2022-11-29T04:07:35.131Z,93.03
2022-11-29T04:10:17.750Z,92.93
2022-11-29T04:13:08.009Z,93.39
2022-11-29T04:15:30.583Z,93.54
2022-11-29T04:17:55.754Z,93.47
2022-11-29T04:21:04.244Z,93.65
2022-11-29T04:24:03.017Z,93.71
2022-11-29T04:26:44.322Z,93.69
2022-11-29T04:29:18.748Z,93.47
2022-11-29T04:32:10.397Z,93.68
2022-11-29T04:34:52.497Z,93.86
2022-11-29T04:37:52.800Z,94.01
2022-11-29T04:40:46.537Z,93.89
2022-11-29T04:43:36.013Z,93.54
2022-11-29T04:46:10.623Z,93.62
2022-11-29T04:48:55.387Z,93.74
2022-11-29T04:51:17.854Z,93.99
2022-11-29T04:54:28.208Z,94.03
2022-11-29T04:56:57.006Z,93.88
2022-11-29T04:59:35.856Z,93.80
2022-11-29T05:02:13.375Z,93.98
2022-11-29T05:05:06.263Z,93.83
2022-11-29T05:08:17.650Z,94.03
2022-11-29T05:10:56.852Z,94.15
2022-11-29T05:13:58.823Z,93.55
2022-11-29T05:16:46.649Z,93.60
2022-11-29T05:19:29.884Z,93.60
2022-11-29T05:22:25.804Z,93.68
2022-11-29T05:25:22.937Z,93.99
2022-11-29T05:28:09.711Z,93.91
2022-11-29T05:30:54.575Z,93.74
2022-11-29T05:33:26.087Z,93.75
2022-11-29T05:36:14.803Z,93.72
2022-11-29T05:38:49.552Z,93.73
2022-11-29T05:41:30.750Z,93.43
2022-11-29T05:44:24.182Z,93.48
2022-11-29T05:46:56.864Z,93.40
2022-11-29T05:49:19.406Z,93.33
2022-11-29T05:52:06.828Z,93.27
2022-11-29T05:54:49.772Z,93.02
2022-11-29T05:57:27.891Z,92.95
2022-11-29T05:59:51.922Z,93.06
2022-11-29T06:02:26.697Z,93.15
2022-11-29T06:05:09.726Z,93.35
2022-11-29T06:07:54.219Z,93.34
2022-11-29T06:10:19.869Z,93.49
2022-11-29T06:12:45.551Z,93.68
2022-11-29T06:15:20.200Z,93.64
2022-11-29T06:18:22.885Z,93.82
2022-11-29T06:21:17.602Z,93.75
2022-11-29T06:24:05.306Z,93.77
2022-11-29T06:26:34.363Z,93.45
2022-11-29T06:29:27.698Z,93.28
2022-11-29T06:32:19.175Z,93.10
2022-11-29T06:35:02.879Z,93.02
2022-11-29T06:37:42.913Z,92.99
2022-11-29T06:40:11.490Z,93.08
2022-11-29T06:42:34.357Z,93.08
2022-11-29T06:44:57.563Z,92.70
2022-11-29T06:47:36.112Z,92.52
2022-11-29T06:50:15.870Z,92.73
2022-11-29T06:52:49.589Z,92.42
2022-11-29T06:55:29.465Z,92.53
2022-11-29T06:58:13.965Z,92.63
2022-11-29T07:01:15.420Z,92.65
2022-11-29T07:03:44.949Z,92.66
2022-11-29T07:06:21.672Z,92.45
2022-11-29T07:08:45.555Z,92.84
2022-11-29T07:11:13.490Z,92.82
2022-11-29T07:13:36.529Z,92.71
2022-11-29T07:16:12.643Z,92.61
2022-11-29T07:18:59.767Z,92.22
2022-11-29T07:21:34.518Z,91.78
2022-11-29T07:24:17.363Z,91.57
2022-11-29T07:27:05.536Z,91.80
2022-11-29T07:29:50.224Z,91.78
2022-11-29T07:32:50.368Z,91.85
2022-11-29T07:35:30.503Z,92.17
2022-11-29T07:38:12.155Z,92.32
2022-11-29T07:40:56.049Z,92.20
2022-11-29T07:43:33.884Z,92.08
2022-11-29T07:45:57.716Z,91.72
2022-11-29T07:48:22.171Z,91.92
2022-11-29T07:50:45.670Z,91.80
2022-11-29T07:53:16.278Z,91.91
2022-11-29T07:55:40.125Z,92.21
2022-11-29T07:58:03.382Z,92.39
2022-11-29T08:00:26.254Z,92.13
2022-11-29T08:02:50.679Z,92.06
2022-11-29T08:05:13.389Z,92.53
2022-11-29T08:07:37.568Z,92.43
2022-11-29T08:10:00.287Z,92.12
2022-11-29T08:12:22.993Z,92.14
2022-11-29T08:14:45.914Z,92.16
2022-11-29T08:17:08.673Z,92.26
2022-11-29T08:19:31.482Z,92.13
2022-11-29T08:21:54.113Z,91.69
2022-11-29T08:24:16.871Z,91.95
2022-11-29T08:26:39.527Z,91.99
2022-11-29T08:29:04.594Z,92.17
2022-11-29T08:31:27.164Z,92.14
2022-11-29T08:33:50.164Z,92.18
2022-11-29T08:36:15.640Z,92.41
2022-11-29T08:38:38.265Z,92.44
2022-11-29T08:41:05.694Z,92.21
2022-11-29T08:43:30.028Z,92.06
2022-11-29T08:45:53.179Z,91.88
2022-11-29T08:48:16.143Z,91.84
2022-11-29T08:50:38.961Z,91.72
2022-11-29T08:53:20.341Z,91.08
2022-11-29T08:55:43.205Z,90.30
2022-11-29T08:58:08.924Z,90.16
2022-11-29T09:00:32.116Z,90.30
2022-11-29T09:02:54.795Z,90.50
2022-11-29T09:05:17.545Z,90.60
2022-11-29T09:07:40.582Z,90.39
2022-11-29T09:10:08.134Z,90.24
2022-11-29T09:12:32.731Z,90.04
2022-11-29T09:14:55.527Z,90.18
2022-11-29T09:17:18.559Z,89.87
2022-11-29T09:19:41.687Z,89.79
2022-11-29T09:22:04.704Z,90.11
2022-11-29T09:24:27.307Z,89.84
2022-11-29T09:26:51.185Z,89.77
2022-11-29T09:29:16.066Z,89.36
2022-11-29T09:31:38.884Z,89.43
2022-11-29T09:34:01.926Z,89.43
2022-11-29T09:36:28.577Z,89.79
2022-11-29T09:38:52.405Z,89.61
2022-11-29T09:41:52.495Z,89.01
2022-11-29T09:44:25.412Z,88.81
2022-11-29T09:47:08.503Z,88.76
2022-11-29T09:49:57.859Z,88.90
2022-11-29T09:52:52.083Z,89.27
2022-11-29T09:55:49.382Z,89.08
2022-11-29T09:58:17.734Z,88.84
2022-11-29T10:00:49.897Z,88.52
2022-11-29T10:03:52.036Z,88.29
2022-11-29T10:06:32.825Z,88.27
2022-11-29T10:09:22.936Z,87.81
2022-11-29T10:12:14.418Z,87.19
2022-11-29T10:15:10.525Z,86.82
2022-11-29T10:17:49.905Z,86.41
2022-11-29T10:20:21.354Z,86.45
2022-11-29T10:22:55.402Z,86.37
2022-11-29T10:25:25.570Z,86.97
2022-11-29T10:27:48.981Z,86.41
2022-11-29T10:30:17.666Z,86.71
2022-11-29T10:32:41.148Z,86.96
2022-11-29T10:35:12.698Z,87.06
2022-11-29T10:37:35.697Z,86.94
2022-11-29T10:40:08.259Z,87.75
2022-11-29T10:42:50.464Z,87.50
2022-11-29T10:45:16.801Z,87.07
2022-11-29T10:47:39.713Z,86.52
2022-11-29T10:50:02.746Z,86.47
2022-11-29T10:52:25.719Z,86.18
2022-11-29T10:54:50.200Z,86.20
2022-11-29T10:57:16.437Z,85.26
2022-11-29T10:59:39.937Z,85.00
2022-11-29T11:02:04.226Z,85.65
2022-11-29T11:04:44.656Z,85.66
2022-11-29T11:07:09.433Z,84.77
2022-11-29T11:09:42.649Z,84.44
2022-11-29T11:12:17.069Z,84.57
2022-11-29T11:14:40.981Z,84.73
2022-11-29T11:17:26.509Z,85.18
2022-11-29T11:20:06.082Z,84.51
2022-11-29T11:22:29.696Z,83.95
2022-11-29T11:25:25.306Z,84.08
2022-11-29T11:27:48.106Z,83.58
2022-11-29T11:30:26.020Z,83.92
2022-11-29T11:33:08.478Z,83.89
2022-11-29T11:35:31.280Z,83.86
2022-11-29T11:37:57.596Z,84.37
2022-11-29T11:40:30.878Z,83.84
2022-11-29T11:42:53.652Z,83.76
2022-11-29T11:45:16.299Z,83.87
2022-11-29T11:47:46.289Z,83.20
2022-11-29T11:50:14.017Z,82.97
2022-11-29T11:52:41.297Z,83.50
2022-11-29T11:55:21.946Z,83.83
2022-11-29T11:57:45.377Z,84.45
2022-11-29T12:01:02.241Z,84.20
2022-11-29T12:03:32.818Z,84.18
2022-11-29T12:06:01.385Z,83.40
2022-11-29T12:08:24.538Z,83.82
2022-11-29T12:10:50.399Z,84.13
2022-11-29T12:13:24.087Z,83.90
2022-11-29T12:15:50.046Z,83.47
2022-11-29T12:18:30.785Z,83.75
2022-11-29T12:21:01.611Z,84.04
2022-11-29T12:23:30.008Z,83.81
2022-11-29T12:26:04.589Z,83.37
2022-11-29T12:28:32.079Z,83.42
2022-11-29T12:31:20.072Z,83.67
2022-11-29T12:33:51.816Z,83.78
2022-11-29T12:36:46.550Z,83.34
2022-11-29T12:40:06.600Z,83.39
2022-11-29T12:42:39.588Z,83.86
2022-11-29T12:45:17.537Z,83.80
2022-11-29T12:47:59.217Z,84.11
2022-11-29T12:51:00.255Z,84.49
2022-11-29T12:53:53.919Z,84.65
2022-11-29T12:56:26.608Z,84.62
2022-11-29T12:59:09.907Z,84.49
2022-11-29T13:02:00.135Z,84.56
2022-11-29T13:04:56.488Z,84.83
2022-11-29T13:07:35.188Z,84.95
2022-11-29T13:09:58.214Z,85.08
2022-11-29T13:12:38.876Z,84.57
2022-11-29T13:15:06.905Z,85.23
2022-11-29T13:17:50.977Z,85.48
2022-11-29T13:20:25.291Z,85.95
2022-11-29T13:23:03.968Z,85.72
2022-11-29T13:25:36.269Z,85.93
2022-11-29T13:28:21.874Z,85.84
2022-11-29T13:30:45.856Z,85.73
2022-11-29T13:33:27.029Z,85.90
2022-11-29T13:36:11.113Z,86.05
2022-11-29T13:38:43.903Z,85.84
2022-11-29T13:41:35.076Z,85.89
2022-11-29T13:44:35.389Z,86.02
2022-11-29T13:47:16.843Z,86.86
2022-11-29T13:49:59.123Z,86.88
2022-11-29T13:52:57.617Z,87.39
2022-11-29T13:55:31.847Z,87.64
2022-11-29T13:58:18.718Z,87.66
2022-11-29T14:00:44.465Z,87.50
2022-11-29T14:03:21.064Z,87.68
2022-11-29T14:05:45.328Z,87.54
2022-11-29T14:08:54.683Z,87.40
2022-11-29T14:11:15.924Z,87.81
2022-11-29T14:13:41.195Z,87.67
2022-11-29T14:16:06.271Z,87.52
2022-11-29T14:18:38.034Z,87.43
2022-11-29T14:21:00.776Z,87.16
2022-11-29T14:24:15.893Z,87.39
2022-11-29T14:26:38.581Z,87.38
2022-11-29T14:29:01.605Z,87.26
2022-11-29T14:31:47.324Z,86.88
2022-11-29T14:34:17.461Z,87.04
2022-11-29T14:36:50.250Z,86.92
2022-11-29T14:39:31.049Z,86.89
2022-11-29T14:42:14.769Z,87.16
2022-11-29T14:44:44.825Z,87.23
2022-11-29T14:47:21.669Z,87.57
2022-11-29T14:49:45.472Z,87.64
2022-11-29T14:52:22.494Z,87.88
2022-11-29T14:55:00.284Z,87.87
2022-11-29T14:57:48.033Z,88.01
2022-11-29T15:00:14.373Z,88.19
2022-11-29T15:02:45.887Z,88.19
2022-11-29T15:05:14.561Z,88.43
2022-11-29T15:07:43.515Z,88.25
2022-11-29T15:10:18.136Z,88.09
2022-11-29T15:12:40.901Z,88.15
2022-11-29T15:15:24.107Z,88.07
2022-11-29T15:18:01.016Z,87.84
2022-11-29T15:20:57.290Z,87.81
2022-11-29T15:23:20.021Z,88.04
2022-11-29T15:25:51.051Z,88.15
2022-11-29T15:28:20.915Z,88.07
2022-11-29T15:30:44.261Z,88.34
2022-11-29T15:33:18.774Z,88.09
2022-11-29T15:35:49.638Z,87.86
2022-11-29T15:38:18.080Z,88.02
2022-11-29T15:40:52.747Z,87.94
2022-11-29T15:43:20.472Z,88.13
2022-11-29T15:45:51.507Z,87.95
2022-11-29T15:48:24.465Z,88.21
2022-11-29T15:51:04.424Z,88.30
2022-11-29T15:53:48.843Z,88.27
2022-11-29T15:56:29.832Z,88.02
2022-11-29T15:58:59.601Z,88.33
2022-11-29T16:01:22.376Z,88.05
2022-11-29T16:03:46.444Z,88.12
2022-11-29T16:06:29.077Z,88.07
2022-11-29T16:08:53.353Z,87.91
2022-11-29T16:11:20.351Z,88.19
2022-11-29T16:14:01.157Z,87.95
2022-11-29T16:16:24.006Z,87.97
2022-11-29T16:18:48.598Z,87.92
2022-11-29T16:21:27.232Z,88.19
2022-11-29T16:23:50.062Z,88.25
2022-11-29T16:26:22.221Z,87.85
2022-11-29T16:28:47.028Z,87.60
2022-11-29T16:31:17.810Z,88.11
2022-11-29T16:33:40.900Z,88.11
2022-11-29T16:36:13.928Z,88.27
2022-11-29T16:38:36.827Z,87.95
2022-11-29T16:41:19.017Z,87.82
2022-11-29T16:43:44.506Z,87.90
2022-11-29T16:46:37.973Z,88.33
2022-11-29T16:49:23.173Z,88.28
2022-11-29T16:51:48.619Z,88.30
2022-11-29T16:54:24.759Z,88.21
2022-11-29T16:56:48.024Z,88.60
2022-11-29T16:59:17.189Z,88.60
2022-11-29T17:01:49.936Z,88.61
2022-11-29T17:04:12.735Z,88.69
2022-11-29T17:06:47.580Z,89.00
2022-11-29T17:09:20.077Z,89.13
2022-11-29T17:11:42.670Z,88.84
2022-11-29T17:14:05.505Z,88.54
2022-11-29T17:16:28.089Z,88.95
2022-11-29T17:18:52.905Z,89.37
2022-11-29T17:21:19.123Z,89.66
2022-11-29T17:23:41.895Z,89.55
2022-11-29T17:26:04.475Z,89.50
2022-11-29T17:28:27.849Z,89.62
2022-11-29T17:30:50.606Z,89.42
2022-11-29T17:33:13.460Z,89.24
2022-11-29T17:35:35.988Z,89.15
2022-11-29T17:37:58.888Z,89.04
2022-11-29T17:40:21.584Z,88.90
2022-11-29T17:42:44.732Z,88.65
2022-11-29T17:45:08.024Z,88.95
2022-11-29T17:47:32.497Z,89.15
2022-11-29T17:49:55.173Z,89.18
2022-11-29T17:52:18.009Z,89.20
2022-11-29T17:54:41.239Z,89.22
2022-11-29T17:57:04.657Z,89.31
2022-11-29T17:59:27.754Z,88.85
2022-11-29T18:01:50.675Z,88.93
2022-11-29T18:04:14.259Z,89.22
2022-11-29T18:06:39.592Z,89.28
2022-11-29T18:09:03.866Z,89.28
2022-11-29T18:11:49.453Z,88.95
2022-11-29T18:14:15.995Z,88.81
2022-11-29T18:16:38.868Z,89.15
2022-11-29T18:19:08.124Z,89.22
2022-11-29T18:21:32.119Z,89.11
2022-11-29T18:23:55.695Z,88.99
2022-11-29T18:26:21.386Z,88.81
2022-11-29T18:28:45.660Z,89.19
2022-11-29T18:31:08.887Z,89.15
2022-11-29T18:33:31.835Z,89.07
2022-11-29T18:35:54.524Z,88.98
2022-11-29T18:38:17.432Z,88.77
2022-11-29T18:40:41.756Z,88.45
2022-11-29T18:43:04.712Z,89.02
2022-11-29T18:45:27.488Z,89.52
2022-11-29T18:47:50.609Z,89.62
2022-11-29T18:50:13.215Z,89.28
2022-11-29T18:52:40.548Z,89.29
2022-11-29T18:55:03.868Z,89.48
2022-11-29T18:57:27.522Z,89.66
2022-11-29T18:59:50.496Z,89.67
2022-11-29T19:02:16.609Z,89.62
2022-11-29T19:04:39.372Z,89.67
2022-11-29T19:07:02.193Z,89.74
2022-11-29T19:09:25.200Z,89.50
2022-11-29T19:11:51.437Z,89.43
2022-11-29T19:14:15.479Z,89.26
2022-11-29T19:16:40.038Z,89.39
2022-11-29T19:19:03.211Z,89.03
2022-11-29T19:21:28.484Z,89.35
2022-11-29T19:23:53.960Z,88.82
2022-11-29T19:26:16.749Z,88.69
2022-11-29T19:28:41.292Z,88.56
2022-11-29T19:31:05.495Z,88.27
2022-11-29T19:33:28.955Z,88.81
2022-11-29T19:35:51.706Z,88.97
2022-11-29T19:38:15.430Z,88.79
2022-11-29T19:40:41.540Z,89.20
2022-11-29T19:43:04.712Z,89.35
2022-11-29T19:45:28.807Z,89.40
2022-11-29T19:47:51.740Z,90.06
2022-11-29T19:50:15.135Z,90.25
2022-11-29T19:52:37.994Z,90.56
2022-11-29T19:55:01.161Z,90.48
2022-11-29T19:57:24.175Z,90.48
2022-11-29T19:59:48.046Z,90.55
2022-11-29T20:02:12.035Z,90.44
2022-11-29T20:04:34.972Z,90.75
2022-11-29T20:06:58.185Z,90.77
2022-11-29T20:09:25.186Z,90.65
2022-11-29T20:11:48.365Z,90.43
2022-11-29T20:14:12.240Z,90.26
2022-11-29T20:16:38.143Z,90.27
2022-11-29T20:19:01.831Z,90.30
2022-11-29T20:21:32.347Z,90.19
2022-11-29T20:23:57.412Z,90.22
2022-11-29T20:26:21.051Z,89.91
2022-11-29T20:28:45.480Z,89.85
2022-11-29T20:31:11.023Z,89.84
2022-11-29T20:33:34.284Z,89.41
2022-11-29T20:36:16.676Z,89.37
2022-11-29T20:39:02.181Z,89.40
2022-11-29T20:41:32.833Z,89.24
2022-11-29T20:43:58.819Z,89.09
2022-11-29T20:46:22.976Z,88.98
2022-11-29T20:48:46.251Z,88.55
2022-11-29T20:51:10.594Z,88.69
2022-11-29T20:53:38.062Z,88.25
2022-11-29T20:56:01.750Z,87.85
2022-11-29T20:58:26.486Z,87.77
2022-11-29T21:00:49.645Z,87.79
2022-11-29T21:03:19.560Z,87.56
2022-11-29T21:05:42.964Z,87.19
2022-11-29T21:08:05.942Z,87.24
2022-11-29T21:10:28.880Z,87.01
2022-11-29T21:12:51.793Z,86.91
2022-11-29T21:15:15.589Z,86.64
2022-11-29T21:17:38.634Z,86.56
2022-11-29T21:20:02.580Z,86.55
2022-11-29T21:22:46.999Z,87.11
2022-11-29T21:25:24.363Z,86.55
2022-11-29T21:27:47.756Z,87.14
2022-11-29T21:30:18.532Z,87.36
2022-11-29T21:32:41.549Z,87.35
2022-11-29T21:35:04.323Z,86.62
2022-11-29T21:37:30.971Z,86.63
2022-11-29T21:39:55.097Z,86.71
2022-11-29T21:42:18.093Z,86.23
2022-11-29T21:44:41.685Z,86.14
2022-11-29T21:47:04.773Z,86.05
2022-11-29T21:49:28.368Z,86.25
2022-11-29T21:51:50.979Z,85.85
2022-11-29T21:54:13.717Z,86.01
2022-11-29T21:56:36.293Z,85.79
2022-11-29T21:58:58.810Z,85.80
2022-11-29T22:01:21.837Z,85.47
2022-11-29T22:03:44.926Z,85.29
2022-11-29T22:06:18.309Z,85.36
2022-11-29T22:08:41.883Z,85.07
2022-11-29T22:11:12.841Z,84.48
2022-11-29T22:13:36.966Z,84.63
2022-11-29T22:16:10.335Z,84.37
2022-11-29T22:18:34.670Z,84.14
2022-11-29T22:21:01.927Z,84.28
2022-11-29T22:23:24.445Z,84.00
2022-11-29T22:25:47.008Z,83.94
2022-11-29T22:28:10.054Z,83.98
2022-11-29T22:30:32.689Z,83.82
2022-11-29T22:32:56.719Z,83.85
2022-11-29T22:35:19.209Z,83.74
2022-11-29T22:37:41.755Z,83.97
2022-11-29T22:40:06.064Z,83.42
2022-11-29T22:42:28.743Z,83.48
2022-11-29T22:44:51.224Z,83.73
2022-11-29T22:47:15.276Z,83.76
2022-11-29T22:49:37.728Z,84.13
2022-11-29T22:52:00.732Z,83.83
2022-11-29T22:54:23.329Z,83.98
2022-11-29T22:56:46.807Z,83.96
2022-11-29T22:59:09.695Z,83.67
2022-11-29T23:01:35.292Z,83.40
2022-11-29T23:04:00.146Z,83.00
2022-11-29T23:06:40.504Z,83.05
2022-11-29T23:09:12.091Z,83.07
2022-11-29T23:11:34.669Z,82.92
2022-11-29T23:13:57.490Z,82.62
2022-11-29T23:16:28.255Z,82.52
2022-11-29T23:18:51.328Z,82.42
2022-11-29T23:21:24.099Z,82.23
2022-11-29T23:23:51.488Z,81.90
2022-11-29T23:26:20.099Z,82.34
2022-11-29T23:28:42.800Z,81.94
2022-11-29T23:31:05.390Z,82.19
2022-11-29T23:33:28.584Z,82.31
2022-11-29T23:35:51.739Z,82.31
2022-11-29T23:38:15.358Z,82.27
2022-11-29T23:40:38.283Z,82.14
2022-11-29T23:43:00.978Z,82.15
2022-11-29T23:45:23.565Z,81.72
2022-11-29T23:47:46.225Z,81.88
2022-11-29T23:50:10.680Z,81.86
2022-11-29T23:52:33.232Z,81.90
2022-11-29T23:54:55.768Z,81.72
2022-11-29T23:57:18.425Z,81.57
2022-11-29T23:59:41.391Z,81.07
